Tamsen — ZCTG9 — position and weather

sailwx.info

Track history (hours):
 
Tides and Currents Weather Stations Pressure Air Temp Water Temp Dewpoint Dewpoint Depression Visibility Wind Speed Wind Dir Waves Ship Positions

Tamsen

Last reported at 2018-Jul-16 15:26 UTC. Time now 2018-Jul-16 15:58 UTC.
Position N 41°23' E 002°11'.

Length 52 m.

Type: Pleasure craft. MMSI: 318861424.

Date/timePositionNaut miles runAvg speedWind from/ knotsBaromVisibWave heightAir tempDewpointWater temp
2018-Jul-16 15:26N 41°23' E 002°11'0 0.0
2018-Jul-16 14:56N 41°23' E 002°11'0 0.0
2018-Jul-16 14:26N 41°23' E 002°11'0 0.0
2018-Jul-16 13:53N 41°23' E 002°11'0 0.0
2018-Jul-16 13:20N 41°23' E 002°11'0 0.0
2018-Jul-16 12:59N 41°23' E 002°11'0 0.0
2018-Jul-16 12:29N 41°23' E 002°11'0 0.0
2018-Jul-16 08:05N 41°23' E 002°11'0 0.0
2018-Jul-16 07:44N 41°23' E 002°11'0 0.0
2018-Jul-15 18:41N 41°23' E 002°11'0 0.0
2018-Jul-15 18:25N 41°23' E 002°11'1 1.6
2018-Jul-15 18:00N 41°22' E 002°11'4 8.7
2018-Jul-15 17:30N 41°18' E 002°13'510.4
2018-Jul-15 17:00N 41°13' E 002°10'17710.4
2018-Jul-15 00:04N 38°36' E 000°25'302 8.7
2018-Jul-13 13:27N 36°11' W 005°09'511.6
2018-Jul-13 12:59N 36°08' W 005°15'510.9
2018-Jul-13 12:29N 36°06' W 005°21'3 6.3
2018-Jul-13 12:00N 36°09' W 005°22'0 0.0
2018-Jul-13 11:28N 36°09' W 005°22'0 0.0
2018-Jul-13 10:49N 36°09' W 005°22'  
2018-Jul-09 16:56N 37°59' W 023°32'510.4
2018-Jul-09 16:30N 37°60' W 023°38'510.3
2018-Jul-09 16:00N 38°00' W 023°44'510.1
2018-Jul-09 15:30N 38°01' W 023°50'510.1
2018-Jul-09 15:00N 38°02' W 023°56'510.1
2018-Jul-09 14:30N 38°03' W 024°03'3 7.0
2018-Jul-09 14:00N 38°04' W 024°07'510.4
2018-Jul-09 13:30N 38°05' W 024°14'510.6
2018-Jul-09 13:00N 38°06' W 024°20'510.6
2018-Jul-09 12:30N 38°06' W 024°27'510.7
2018-Jul-09 12:00N 38°07' W 024°34'510.5
2018-Jul-09 11:31N 38°08' W 024°40'510.5
2018-Jul-09 11:00N 38°09' W 024°47'510.6
2018-Jul-09 10:30N 38°10' W 024°54'510.7
2018-Jul-09 10:01N 38°11' W 025°00'510.5
2018-Jul-09 09:30N 38°12' W 025°07'510.4
2018-Jul-09 09:00N 38°12' W 025°13'510.3
2018-Jul-09 08:30N 38°13' W 025°20'510.3
2018-Jul-09 08:00N 38°14' W 025°26'510.5
2018-Jul-09 07:30N 38°15' W 025°33'510.2
2018-Jul-09 07:00N 38°15' W 025°39'510.1
2018-Jul-09 06:30N 38°16' W 025°46'510.1
2018-Jul-09 06:00N 38°17' W 025°52'510.4
2018-Jul-09 05:30N 38°18' W 025°59'510.6
2018-Jul-09 05:00N 38°18' W 026°05'510.5
2018-Jul-09 04:30N 38°19' W 026°12'510.2
2018-Jul-09 04:01N 38°19' W 026°18'510.3
2018-Jul-09 03:30N 38°20' W 026°25'510.3
2018-Jul-09 03:00N 38°21' W 026°31'510.3
2018-Jul-09 02:31N 38°22' W 026°38'510.4
2018-Jul-09 02:00N 38°22' W 026°44'510.7
2018-Jul-09 01:30N 38°23' W 026°51'510.8
2018-Jul-09 01:00N 38°24' W 026°58'510.5
2018-Jul-09 00:30N 38°25' W 027°05'510.3
2018-Jul-09 00:00N 38°26' W 027°11'510.6
2018-Jul-08 23:30N 38°27' W 027°18'510.8
2018-Jul-08 23:00N 38°28' W 027°24'510.4
2018-Jul-08 22:30N 38°29' W 027°31'510.6
2018-Jul-08 22:00N 38°29' W 027°38'511.0
2018-Jul-08 21:30N 38°30' W 027°45'511.0
2018-Jul-08 21:01N 38°31' W 027°52'510.6
2018-Jul-08 20:30N 38°31' W 027°58'510.8
2018-Jul-08 20:00N 38°32' W 028°05'510.7
2018-Jul-08 19:31N 38°33' W 028°12'510.3
2018-Jul-08 19:00N 38°34' W 028°18'5 9.9
2018-Jul-08 18:30N 38°35' W 028°25'5 9.0
2018-Jul-08 18:00N 38°35' W 028°30'4 8.5
2018-Jul-08 17:30N 38°33' W 028°35'2 3.8
2018-Jul-08 17:00N 38°32' W 028°37'0 0.0
2018-Jul-08 16:29N 38°32' W 028°37'0 0.0
2018-Jul-08 15:56N 38°32' W 028°37'0 0.0
2018-Jul-08 15:29N 38°32' W 028°37'0 0.0
2018-Jul-08 14:56N 38°32' W 028°37'0 0.0
2018-Jul-08 14:29N 38°32' W 028°37'0 0.0
2018-Jul-08 13:59N 38°32' W 028°37'0 0.0
2018-Jul-08 13:29N 38°32' W 028°37'0 0.0
2018-Jul-08 12:59N 38°32' W 028°37'0 0.0
2018-Jul-08 12:26N 38°32' W 028°37'0 0.0
2018-Jul-08 11:59N 38°32' W 028°37'0 0.0
2018-Jul-08 11:29N 38°32' W 028°37'0 0.0
2018-Jul-08 10:59N 38°32' W 028°37'0 0.0
2018-Jul-08 10:29N 38°32' W 028°37'0 0.0
2018-Jul-08 09:59N 38°32' W 028°37'0 0.0
2018-Jul-08 09:29N 38°32' W 028°37'0 0.0
2018-Jul-08 08:59N 38°32' W 028°37'0 0.0
2018-Jul-08 08:29N 38°32' W 028°37'0 0.0
2018-Jul-08 07:59N 38°32' W 028°37'0 0.0
2018-Jul-08 07:29N 38°32' W 028°37'0 0.0
2018-Jul-08 06:59N 38°32' W 028°37'0 0.0
2018-Jul-08 06:28N 38°32' W 028°37'0 0.0
2018-Jul-08 05:59N 38°32' W 028°37'0 0.0
2018-Jul-08 05:29N 38°32' W 028°37'0 0.0
2018-Jul-08 04:58N 38°32' W 028°37'0 0.0
2018-Jul-08 04:25N 38°32' W 028°37'0 0.0
2018-Jul-08 03:58N 38°32' W 028°37'0 0.0
2018-Jul-08 03:29N 38°32' W 028°37'0 0.0
2018-Jul-08 02:58N 38°32' W 028°37'0 0.0
2018-Jul-08 02:28N 38°32' W 028°37'0 0.0
2018-Jul-08 01:59N 38°32' W 028°37'0 0.0
2018-Jul-08 01:28N 38°32' W 028°37'0 0.0
2018-Jul-08 00:58N 38°32' W 028°37'0 0.0
2018-Jul-08 00:28N 38°32' W 028°37'0 0.0
2018-Jul-07 23:58N 38°32' W 028°37'0 0.0
2018-Jul-07 23:28N 38°32' W 028°37'0 0.0
2018-Jul-07 22:58N 38°32' W 028°37'0 0.0
2018-Jul-07 22:28N 38°32' W 028°37'0 0.0
2018-Jul-07 21:58N 38°32' W 028°37'0 0.0
2018-Jul-07 21:28N 38°32' W 028°37'0 0.0
2018-Jul-07 20:58N 38°32' W 028°37'0 0.0
2018-Jul-07 20:28N 38°32' W 028°37'0 0.0
2018-Jul-07 19:58N 38°32' W 028°37'0 0.0
2018-Jul-07 19:28N 38°32' W 028°37'0 0.0
2018-Jul-07 18:58N 38°32' W 028°37'0 0.0
2018-Jul-07 18:28N 38°32' W 028°37'0 0.0
2018-Jul-07 17:58N 38°32' W 028°37'0 0.0
2018-Jul-07 17:25N 38°32' W 028°37'0 0.0
2018-Jul-07 16:58N 38°32' W 028°37'0 0.0
2018-Jul-07 16:28N 38°32' W 028°37'0 0.0
2018-Jul-07 15:58N 38°32' W 028°37'0 0.0
2018-Jul-07 15:28N 38°32' W 028°37'0 0.0
2018-Jul-07 14:58N 38°32' W 028°37'0 0.0
2018-Jul-07 14:28N 38°32' W 028°37'0 0.0
2018-Jul-07 13:58N 38°32' W 028°37'0 0.0
2018-Jul-07 13:28N 38°32' W 028°37'0 0.0
2018-Jul-07 12:58N 38°32' W 028°37'0 0.0
2018-Jul-07 12:28N 38°32' W 028°37'0 0.0
2018-Jul-07 11:58N 38°32' W 028°37'0 0.0
2018-Jul-07 11:28N 38°32' W 028°37'0 0.0
2018-Jul-07 10:58N 38°32' W 028°37'0 0.0
2018-Jul-07 10:28N 38°32' W 028°37'0 0.0
2018-Jul-07 09:58N 38°32' W 028°37'0 0.0
2018-Jul-07 09:28N 38°32' W 028°37'0 0.0
2018-Jul-07 08:58N 38°32' W 028°37'0 0.0
2018-Jul-07 08:28N 38°32' W 028°37'0 0.0
2018-Jul-07 07:58N 38°32' W 028°37'0 0.0
2018-Jul-07 07:28N 38°32' W 028°37'0 0.0
2018-Jul-07 06:58N 38°32' W 028°37'0 0.0
2018-Jul-07 06:28N 38°32' W 028°37'0 0.0
2018-Jul-07 05:58N 38°32' W 028°37'0 0.0
2018-Jul-07 05:28N 38°32' W 028°37'0 0.0
2018-Jul-07 04:58N 38°32' W 028°37'0 0.0
2018-Jul-07 04:28N 38°32' W 028°37'0 0.0
2018-Jul-07 03:55N 38°32' W 028°37'0 0.0
2018-Jul-07 03:28N 38°32' W 028°37'0 0.0
2018-Jul-07 02:58N 38°32' W 028°37'0 0.0
2018-Jul-07 02:25N 38°32' W 028°37'0 0.0
2018-Jul-07 01:58N 38°32' W 028°37'0 0.0
2018-Jul-07 01:28N 38°32' W 028°37'0 0.0
2018-Jul-07 00:55N 38°32' W 028°37'0 0.2
2018-Jul-07 00:28N 38°32' W 028°37'0 0.1
2018-Jul-06 23:58N 38°32' W 028°37'0 0.0
2018-Jul-06 23:28N 38°32' W 028°37'0 0.0
2018-Jul-06 22:55N 38°32' W 028°37'0 0.0
2018-Jul-06 22:28N 38°32' W 028°37'0 0.0
2018-Jul-06 21:58N 38°32' W 028°37'0 0.0
2018-Jul-06 21:28N 38°32' W 028°37'0 0.0
2018-Jul-06 21:01N 38°32' W 028°37'0 0.0
2018-Jul-06 20:28N 38°32' W 028°37'0 0.0
2018-Jul-06 19:58N 38°32' W 028°37'0 0.0
2018-Jul-06 19:31N 38°32' W 028°37'0 0.0
2018-Jul-06 19:00N 38°32' W 028°37'0 0.1
2018-Jul-06 18:30N 38°32' W 028°37'1 1.0
2018-Jul-06 18:00N 38°32' W 028°37'2 4.2
2018-Jul-06 17:30N 38°33' W 028°34'1 1.3
2018-Jul-06 17:00N 38°33' W 028°35'1 1.5
2018-Jul-06 16:30N 38°32' W 028°36'1 1.3
2018-Jul-06 16:00N 38°32' W 028°36'2 3.8
2018-Jul-06 15:30N 38°30' W 028°38'  
Track history (hours):
 
Tides and Currents Weather Stations Pressure Air Temp Water Temp Dewpoint Dewpoint Depression Visibility Wind Speed Wind Dir Waves Ship Positions

Tamsen

Last reported at 2018-Jul-16 15:26 UTC. Time now 2018-Jul-16 15:58 UTC.
Position N 41°23' E 002°11'.

Length 52 m.

Type: Pleasure craft. MMSI: 318861424.

Date/timePositionNaut miles runAvg speedWind from/ knotsBaromVisibWave heightAir tempDewpointWater temp
2018-Jul-16 15:26N 41°23' E 002°11'0 0.0
2018-Jul-16 14:56N 41°23' E 002°11'0 0.0
2018-Jul-16 14:26N 41°23' E 002°11'0 0.0
2018-Jul-16 13:53N 41°23' E 002°11'0 0.0
2018-Jul-16 13:20N 41°23' E 002°11'0 0.0
2018-Jul-16 12:59N 41°23' E 002°11'0 0.0
2018-Jul-16 12:29N 41°23' E 002°11'0 0.0
2018-Jul-16 08:05N 41°23' E 002°11'0 0.0
2018-Jul-16 07:44N 41°23' E 002°11'0 0.0
2018-Jul-15 18:41N 41°23' E 002°11'0 0.0
2018-Jul-15 18:25N 41°23' E 002°11'1 1.6
2018-Jul-15 18:00N 41°22' E 002°11'4 8.7
2018-Jul-15 17:30N 41°18' E 002°13'510.4
2018-Jul-15 17:00N 41°13' E 002°10'17710.4
2018-Jul-15 00:04N 38°36' E 000°25'302 8.7
2018-Jul-13 13:27N 36°11' W 005°09'511.6
2018-Jul-13 12:59N 36°08' W 005°15'510.9
2018-Jul-13 12:29N 36°06' W 005°21'3 6.3
2018-Jul-13 12:00N 36°09' W 005°22'0 0.0
2018-Jul-13 11:28N 36°09' W 005°22'0 0.0
2018-Jul-13 10:49N 36°09' W 005°22'  
2018-Jul-09 16:56N 37°59' W 023°32'510.4
2018-Jul-09 16:30N 37°60' W 023°38'510.3
2018-Jul-09 16:00N 38°00' W 023°44'510.1
2018-Jul-09 15:30N 38°01' W 023°50'510.1
2018-Jul-09 15:00N 38°02' W 023°56'510.1
2018-Jul-09 14:30N 38°03' W 024°03'3 7.0
2018-Jul-09 14:00N 38°04' W 024°07'510.4
2018-Jul-09 13:30N 38°05' W 024°14'510.6
2018-Jul-09 13:00N 38°06' W 024°20'510.6
2018-Jul-09 12:30N 38°06' W 024°27'510.7
2018-Jul-09 12:00N 38°07' W 024°34'510.5
2018-Jul-09 11:31N 38°08' W 024°40'510.5
2018-Jul-09 11:00N 38°09' W 024°47'510.6
2018-Jul-09 10:30N 38°10' W 024°54'510.7
2018-Jul-09 10:01N 38°11' W 025°00'510.5
2018-Jul-09 09:30N 38°12' W 025°07'510.4
2018-Jul-09 09:00N 38°12' W 025°13'510.3
2018-Jul-09 08:30N 38°13' W 025°20'510.3
2018-Jul-09 08:00N 38°14' W 025°26'510.5
2018-Jul-09 07:30N 38°15' W 025°33'510.2
2018-Jul-09 07:00N 38°15' W 025°39'510.1
2018-Jul-09 06:30N 38°16' W 025°46'510.1
2018-Jul-09 06:00N 38°17' W 025°52'510.4
2018-Jul-09 05:30N 38°18' W 025°59'510.6
2018-Jul-09 05:00N 38°18' W 026°05'510.5
2018-Jul-09 04:30N 38°19' W 026°12'510.2
2018-Jul-09 04:01N 38°19' W 026°18'510.3
2018-Jul-09 03:30N 38°20' W 026°25'510.3
2018-Jul-09 03:00N 38°21' W 026°31'510.3
2018-Jul-09 02:31N 38°22' W 026°38'510.4
2018-Jul-09 02:00N 38°22' W 026°44'510.7
2018-Jul-09 01:30N 38°23' W 026°51'510.8
2018-Jul-09 01:00N 38°24' W 026°58'510.5
2018-Jul-09 00:30N 38°25' W 027°05'510.3
2018-Jul-09 00:00N 38°26' W 027°11'510.6
2018-Jul-08 23:30N 38°27' W 027°18'510.8
2018-Jul-08 23:00N 38°28' W 027°24'510.4
2018-Jul-08 22:30N 38°29' W 027°31'510.6
2018-Jul-08 22:00N 38°29' W 027°38'511.0
2018-Jul-08 21:30N 38°30' W 027°45'511.0
2018-Jul-08 21:01N 38°31' W 027°52'510.6
2018-Jul-08 20:30N 38°31' W 027°58'510.8
2018-Jul-08 20:00N 38°32' W 028°05'510.7
2018-Jul-08 19:31N 38°33' W 028°12'510.3
2018-Jul-08 19:00N 38°34' W 028°18'5 9.9
2018-Jul-08 18:30N 38°35' W 028°25'5 9.0
2018-Jul-08 18:00N 38°35' W 028°30'4 8.5
2018-Jul-08 17:30N 38°33' W 028°35'2 3.8
2018-Jul-08 17:00N 38°32' W 028°37'0 0.0
2018-Jul-08 16:29N 38°32' W 028°37'0 0.0
2018-Jul-08 15:56N 38°32' W 028°37'0 0.0
2018-Jul-08 15:29N 38°32' W 028°37'0 0.0
2018-Jul-08 14:56N 38°32' W 028°37'0 0.0
2018-Jul-08 14:29N 38°32' W 028°37'0 0.0
2018-Jul-08 13:59N 38°32' W 028°37'0 0.0
2018-Jul-08 13:29N 38°32' W 028°37'0 0.0
2018-Jul-08 12:59N 38°32' W 028°37'0 0.0
2018-Jul-08 12:26N 38°32' W 028°37'0 0.0
2018-Jul-08 11:59N 38°32' W 028°37'0 0.0
2018-Jul-08 11:29N 38°32' W 028°37'0 0.0
2018-Jul-08 10:59N 38°32' W 028°37'0 0.0
2018-Jul-08 10:29N 38°32' W 028°37'0 0.0
2018-Jul-08 09:59N 38°32' W 028°37'0 0.0
2018-Jul-08 09:29N 38°32' W 028°37'0 0.0
2018-Jul-08 08:59N 38°32' W 028°37'0 0.0
2018-Jul-08 08:29N 38°32' W 028°37'0 0.0
2018-Jul-08 07:59N 38°32' W 028°37'0 0.0
2018-Jul-08 07:29N 38°32' W 028°37'0 0.0
2018-Jul-08 06:59N 38°32' W 028°37'0 0.0
2018-Jul-08 06:28N 38°32' W 028°37'0 0.0
2018-Jul-08 05:59N 38°32' W 028°37'0 0.0
2018-Jul-08 05:29N 38°32' W 028°37'0 0.0
2018-Jul-08 04:58N 38°32' W 028°37'0 0.0
2018-Jul-08 04:25N 38°32' W 028°37'0 0.0
2018-Jul-08 03:58N 38°32' W 028°37'0 0.0
2018-Jul-08 03:29N 38°32' W 028°37'0 0.0
2018-Jul-08 02:58N 38°32' W 028°37'0 0.0
2018-Jul-08 02:28N 38°32' W 028°37'0 0.0
2018-Jul-08 01:59N 38°32' W 028°37'0 0.0
2018-Jul-08 01:28N 38°32' W 028°37'0 0.0
2018-Jul-08 00:58N 38°32' W 028°37'0 0.0
2018-Jul-08 00:28N 38°32' W 028°37'0 0.0
2018-Jul-07 23:58N 38°32' W 028°37'0 0.0
2018-Jul-07 23:28N 38°32' W 028°37'0 0.0
2018-Jul-07 22:58N 38°32' W 028°37'0 0.0
2018-Jul-07 22:28N 38°32' W 028°37'0 0.0
2018-Jul-07 21:58N 38°32' W 028°37'0 0.0
2018-Jul-07 21:28N 38°32' W 028°37'0 0.0
2018-Jul-07 20:58N 38°32' W 028°37'0 0.0
2018-Jul-07 20:28N 38°32' W 028°37'0 0.0
2018-Jul-07 19:58N 38°32' W 028°37'0 0.0
2018-Jul-07 19:28N 38°32' W 028°37'0 0.0
2018-Jul-07 18:58N 38°32' W 028°37'0 0.0
2018-Jul-07 18:28N 38°32' W 028°37'0 0.0
2018-Jul-07 17:58N 38°32' W 028°37'0 0.0
2018-Jul-07 17:25N 38°32' W 028°37'0 0.0
2018-Jul-07 16:58N 38°32' W 028°37'0 0.0
2018-Jul-07 16:28N 38°32' W 028°37'0 0.0
2018-Jul-07 15:58N 38°32' W 028°37'0 0.0
2018-Jul-07 15:28N 38°32' W 028°37'0 0.0
2018-Jul-07 14:58N 38°32' W 028°37'0 0.0
2018-Jul-07 14:28N 38°32' W 028°37'0 0.0
2018-Jul-07 13:58N 38°32' W 028°37'0 0.0
2018-Jul-07 13:28N 38°32' W 028°37'0 0.0
2018-Jul-07 12:58N 38°32' W 028°37'0 0.0
2018-Jul-07 12:28N 38°32' W 028°37'0 0.0
2018-Jul-07 11:58N 38°32' W 028°37'0 0.0
2018-Jul-07 11:28N 38°32' W 028°37'0 0.0
2018-Jul-07 10:58N 38°32' W 028°37'0 0.0
2018-Jul-07 10:28N 38°32' W 028°37'0 0.0
2018-Jul-07 09:58N 38°32' W 028°37'0 0.0
2018-Jul-07 09:28N 38°32' W 028°37'0 0.0
2018-Jul-07 08:58N 38°32' W 028°37'0 0.0
2018-Jul-07 08:28N 38°32' W 028°37'0 0.0
2018-Jul-07 07:58N 38°32' W 028°37'0 0.0
2018-Jul-07 07:28N 38°32' W 028°37'0 0.0
2018-Jul-07 06:58N 38°32' W 028°37'0 0.0
2018-Jul-07 06:28N 38°32' W 028°37'0 0.0
2018-Jul-07 05:58N 38°32' W 028°37'0 0.0
2018-Jul-07 05:28N 38°32' W 028°37'0 0.0
2018-Jul-07 04:58N 38°32' W 028°37'0 0.0
2018-Jul-07 04:28N 38°32' W 028°37'0 0.0
2018-Jul-07 03:55N 38°32' W 028°37'0 0.0
2018-Jul-07 03:28N 38°32' W 028°37'0 0.0
2018-Jul-07 02:58N 38°32' W 028°37'0 0.0
2018-Jul-07 02:25N 38°32' W 028°37'0 0.0
2018-Jul-07 01:58N 38°32' W 028°37'0 0.0
2018-Jul-07 01:28N 38°32' W 028°37'0 0.0
2018-Jul-07 00:55N 38°32' W 028°37'0 0.2
2018-Jul-07 00:28N 38°32' W 028°37'0 0.1
2018-Jul-06 23:58N 38°32' W 028°37'0 0.0
2018-Jul-06 23:28N 38°32' W 028°37'0 0.0
2018-Jul-06 22:55N 38°32' W 028°37'0 0.0
2018-Jul-06 22:28N 38°32' W 028°37'0 0.0
2018-Jul-06 21:58N 38°32' W 028°37'0 0.0
2018-Jul-06 21:28N 38°32' W 028°37'0 0.0
2018-Jul-06 21:01N 38°32' W 028°37'0 0.0
2018-Jul-06 20:28N 38°32' W 028°37'0 0.0
2018-Jul-06 19:58N 38°32' W 028°37'0 0.0
2018-Jul-06 19:31N 38°32' W 028°37'0 0.0
2018-Jul-06 19:00N 38°32' W 028°37'0 0.1
2018-Jul-06 18:30N 38°32' W 028°37'1 1.0
2018-Jul-06 18:00N 38°32' W 028°37'2 4.2
2018-Jul-06 17:30N 38°33' W 028°34'1 1.3
2018-Jul-06 17:00N 38°33' W 028°35'1 1.5
2018-Jul-06 16:30N 38°32' W 028°36'1 1.3
2018-Jul-06 16:00N 38°32' W 028°36'2 3.8
2018-Jul-06 15:30N 38°30' W 028°38'  

Dump ship's entire track history